Northsea Beta — 9HA2594 — position and weather

sailwx.info

Track history (hours):
 
Tides and Currents Weather Stations Pressure Air Temp Water Temp Dewpoint Dewpoint Depression Visibility Wind Speed Wind Dir Waves Ship Positions

Northsea Beta

Last reported at 2015-May-19 12:23 UTC. Time now 2015-May-22 08:31 UTC.
Position N 50°34' E 000°18'.

Length 110 m; draft 7.5 m.

Type: Ship (hazmat cat B). MMSI: 248970000.

Date/timePositionNaut miles runAvg speedWind from/ knotsBaromVisibWave heightAir tempDewpointWater temp
2015-May-19 12:23N 50°34' E 000°18'49 8.4
2015-May-19 06:34N 51°02' E 001°23'1111.1
2015-May-19 05:34N 51°09' E 001°36'10 9.6
2015-May-19 04:33N 51°16' E 001°48'10 8.3
2015-May-19 03:22N 51°24' E 001°55'6 7.8
2015-May-19 02:33N 51°29' E 002°01'7 7.4
2015-May-19 01:33N 51°35' E 002°09'65 9.0
2015-May-18 18:20N 52°03' E 003°44'6 7.2
2015-May-18 17:33N 52°03' E 003°53'6 6.3
2015-May-18 16:33N 51°60' E 004°02'10 9.6
2015-May-18 15:33N 51°55' E 004°15'4 3.9
2015-May-18 14:34N 51°54' E 004°22'0 0.0
2015-May-18 13:30N 51°54' E 004°22'0 0.0
2015-May-18 11:30N 51°54' E 004°22'0 0.0
2015-May-18 10:31N 51°54' E 004°22'0 0.0
2015-May-18 09:30N 51°54' E 004°22'0 0.0
2015-May-18 08:30N 51°54' E 004°22'0 0.0
2015-May-18 07:33N 51°54' E 004°22'0 0.0
2015-May-18 05:27N 51°54' E 004°22'0 0.0
2015-May-18 04:30N 51°54' E 004°22'0 0.0
2015-May-18 03:24N 51°54' E 004°22'0 0.0
2015-May-18 02:30N 51°54' E 004°22'0 0.0
2015-May-18 01:18N 51°54' E 004°22'0 0.0
2015-May-18 00:24N 51°54' E 004°22'0 0.0
2015-May-17 23:30N 51°54' E 004°22'0 0.0
2015-May-17 22:15N 51°54' E 004°22'0 0.0
2015-May-17 21:30N 51°54' E 004°22'0 0.0
2015-May-17 20:27N 51°54' E 004°22'0 0.0
2015-May-17 19:30N 51°54' E 004°22'0 0.0
2015-May-17 18:33N 51°54' E 004°22'0 0.0
2015-May-17 15:24N 51°54' E 004°22'0 0.0
2015-May-17 14:30N 51°54' E 004°22'0 0.0
2015-May-17 13:30N 51°54' E 004°22'0 0.0
2015-May-17 12:24N 51°54' E 004°22'0 0.0
2015-May-17 11:24N 51°54' E 004°22'0 0.0
2015-May-17 10:24N 51°54' E 004°22'0 0.0
2015-May-17 09:30N 51°54' E 004°22'0 0.0
2015-May-17 08:30N 51°54' E 004°22'0 0.0
2015-May-17 07:24N 51°54' E 004°22'0 0.0
2015-May-17 06:30N 51°54' E 004°22'0 0.0
2015-May-17 05:24N 51°54' E 004°22'0 0.0
2015-May-17 04:27N 51°54' E 004°22'0 0.0
2015-May-17 03:30N 51°54' E 004°22'0 0.0
2015-May-17 02:24N 51°54' E 004°22'0 0.0
2015-May-17 01:33N 51°54' E 004°22'0 0.0
2015-May-17 00:24N 51°54' E 004°22'0 0.0
2015-May-16 23:33N 51°54' E 004°22'0 0.0
2015-May-16 22:30N 51°54' E 004°22'0 0.0
2015-May-16 21:24N 51°54' E 004°22'0 0.0
2015-May-16 20:30N 51°54' E 004°22'0 0.0
2015-May-16 19:18N 51°54' E 004°22'0 0.0
2015-May-16 18:30N 51°54' E 004°22'0 0.0
2015-May-16 16:33N 51°54' E 004°22'0 0.0
2015-May-16 15:30N 51°54' E 004°22'0 0.0
2015-May-16 14:27N 51°54' E 004°22'0 0.0
2015-May-16 13:31N 51°54' E 004°22'0 0.0
2015-May-16 12:18N 51°54' E 004°22'0 0.0
2015-May-16 11:30N 51°54' E 004°22'0 0.0
2015-May-16 10:30N 51°54' E 004°22'0 0.0
2015-May-16 09:12N 51°54' E 004°22'0 0.0
2015-May-16 08:18N 51°54' E 004°22'0 0.0
2015-May-16 07:30N 51°54' E 004°22'0 0.0
2015-May-16 06:27N 51°54' E 004°22'0 0.0
2015-May-16 05:27N 51°54' E 004°22'0 0.0
2015-May-16 04:18N 51°54' E 004°22'0 0.0
2015-May-16 02:27N 51°54' E 004°22'0 0.0
2015-May-16 01:24N 51°54' E 004°22'0 0.0
2015-May-16 00:28N 51°54' E 004°22'0 0.0
2015-May-15 22:06N 51°54' E 004°22'0 0.0
2015-May-15 21:12N 51°54' E 004°22'0 0.0
2015-May-15 20:30N 51°54' E 004°22'0 0.0
2015-May-15 19:27N 51°54' E 004°22'0 0.0
2015-May-15 18:12N 51°54' E 004°22'0 0.0
2015-May-15 17:30N 51°54' E 004°22'0 0.0
2015-May-15 15:30N 51°54' E 004°22'0 0.0
2015-May-15 14:27N 51°54' E 004°22'0 0.0
2015-May-15 13:24N 51°54' E 004°22'0 0.0
2015-May-15 11:30N 51°54' E 004°22'0 0.0
2015-May-15 10:12N 51°54' E 004°22'0 0.0
2015-May-15 09:24N 51°54' E 004°22'0 0.0
2015-May-15 08:30N 51°54' E 004°22'0 0.0
2015-May-15 07:30N 51°54' E 004°22'0 0.0
2015-May-15 06:12N 51°54' E 004°22'0 0.0
2015-May-15 05:24N 51°54' E 004°22'0 0.0
2015-May-15 04:12N 51°54' E 004°22'0 0.0
2015-May-15 03:33N 51°54' E 004°22'0 0.0
2015-May-15 02:24N 51°54' E 004°22'0 0.0
2015-May-15 01:21N 51°54' E 004°22'0 0.0
2015-May-15 00:33N 51°54' E 004°22'0 0.0
2015-May-14 23:30N 51°54' E 004°22'0 0.0
2015-May-14 22:30N 51°54' E 004°22'0 0.0
2015-May-14 21:06N 51°54' E 004°22'0 0.0
2015-May-14 20:30N 51°54' E 004°22'0 0.0
2015-May-14 19:30N 51°54' E 004°22'0 0.0
2015-May-14 18:30N 51°54' E 004°22'0 0.0
2015-May-14 17:30N 51°54' E 004°22'0 0.0
2015-May-14 16:30N 51°54' E 004°22'0 0.0
2015-May-14 15:27N 51°54' E 004°22'0 0.0
2015-May-14 14:24N 51°54' E 004°22'0 0.0
2015-May-14 13:30N 51°54' E 004°22'0 0.0
2015-May-14 12:18N 51°54' E 004°22'0 0.0
2015-May-14 11:24N 51°54' E 004°22'0 0.0
2015-May-14 10:24N 51°54' E 004°22'0 0.0
2015-May-14 09:33N 51°54' E 004°22'0 0.0
2015-May-14 08:24N 51°54' E 004°22'0 0.0
2015-May-14 07:29N 51°54' E 004°22'0 0.0
2015-May-14 06:29N 51°54' E 004°22'0 0.0
2015-May-14 05:32N 51°54' E 004°22'0 0.0
2015-May-14 04:17N 51°54' E 004°22'0 0.0
2015-May-14 03:23N 51°54' E 004°22'0 0.0
2015-May-14 02:26N 51°54' E 004°22'0 0.0
2015-May-14 01:23N 51°54' E 004°22'0 0.0
2015-May-14 00:32N 51°54' E 004°22'0 0.0
2015-May-13 23:11N 51°54' E 004°22'1 1.4
2015-May-13 22:34N 51°53' E 004°22'0 0.2
2015-May-13 21:26N 51°53' E 004°23'0 0.0
2015-May-13 20:32N 51°53' E 004°23'0 0.0
2015-May-13 19:29N 51°53' E 004°23'0 0.0
2015-May-13 18:26N 51°53' E 004°23'0 0.0
2015-May-13 17:32N 51°53' E 004°23'0 0.0
2015-May-13 16:32N 51°53' E 004°23'0 0.0
2015-May-13 15:26N 51°53' E 004°23'0 0.0
2015-May-13 13:32N 51°53' E 004°23'0 0.0
2015-May-13 12:08N 51°53' E 004°23'0 0.0
2015-May-13 11:29N 51°53' E 004°23'0 0.0
2015-May-13 09:26N 51°53' E 004°23'0 0.0
2015-May-13 08:14N 51°53' E 004°23'0 0.0
2015-May-13 07:32N 51°53' E 004°23'0 0.0
2015-May-13 06:14N 51°53' E 004°23'0 0.0
2015-May-13 05:17N 51°53' E 004°23'0 0.0
2015-May-13 03:32N 51°53' E 004°23'0 0.0
2015-May-13 02:32N 51°53' E 004°23'0 0.0
2015-May-13 00:08N 51°53' E 004°23'0 0.0
2015-May-12 23:14N 51°53' E 004°23'0 0.0
2015-May-12 22:32N 51°53' E 004°23'0 0.0
2015-May-12 21:32N 51°53' E 004°23'0 0.0
2015-May-12 20:32N 51°53' E 004°23'0 0.0
2015-May-12 19:17N 51°53' E 004°23'0 0.0
2015-May-12 18:32N 51°53' E 004°23'0 0.0
2015-May-12 17:32N 51°53' E 004°23'0 0.0
2015-May-12 16:32N 51°53' E 004°23'0 0.0
2015-May-12 14:29N 51°53' E 004°23'0 0.0
2015-May-12 13:29N 51°53' E 004°23'0 0.0
2015-May-12 12:32N 51°53' E 004°23'0 0.0
2015-May-12 11:20N 51°53' E 004°23'0 0.0
2015-May-12 08:32N 51°53' E 004°23'0 0.0
2015-May-12 07:29N 51°53' E 004°23'0 0.0
2015-May-12 06:20N 51°53' E 004°23'0 0.0
2015-May-12 04:11N 51°53' E 004°23'0 0.0
2015-May-12 03:26N 51°53' E 004°23'0 0.0
2015-May-12 02:20N 51°53' E 004°23'0 0.0
2015-May-12 01:14N 51°53' E 004°23'0 0.0
2015-May-12 00:26N 51°53' E 004°23'0 0.0
2015-May-11 23:26N 51°53' E 004°23'0 0.0
2015-May-11 22:29N 51°53' E 004°23'0 0.0
2015-May-11 21:26N 51°53' E 004°23'0 0.0
2015-May-11 20:26N 51°53' E 004°23'0 0.0
2015-May-11 19:32N 51°53' E 004°23'0 0.0
2015-May-11 18:32N 51°53' E 004°23'0 0.0
2015-May-11 16:29N 51°53' E 004°23'0 0.0
2015-May-11 15:32N 51°53' E 004°23'0 0.0
2015-May-11 13:23N 51°53' E 004°23'0 0.0
2015-May-11 12:32N 51°53' E 004°23'0 0.0
2015-May-11 11:26N 51°53' E 004°23'0 0.0
2015-May-11 10:26N 51°53' E 004°23'0 0.0
2015-May-11 08:32N 51°53' E 004°23'0 0.0
2015-May-11 05:29N 51°53' E 004°23'0 0.0
2015-May-11 04:23N 51°53' E 004°23'0 0.0
2015-May-11 03:26N 51°53' E 004°23'0 0.0
2015-May-11 02:26N 51°53' E 004°23'0 0.0
2015-May-11 01:32N 51°53' E 004°23'0 0.0
2015-May-11 00:20N 51°53' E 004°23'0 0.0
2015-May-10 23:32N 51°53' E 004°23'0 0.0
2015-May-10 22:32N 51°53' E 004°23'0 0.0
2015-May-10 21:32N 51°53' E 004°23'0 0.0
2015-May-10 20:32N 51°53' E 004°23'0 0.0
2015-May-10 18:20N 51°53' E 004°23'0 0.0
2015-May-10 17:08N 51°53' E 004°23'0 0.0
2015-May-10 16:26N 51°53' E 004°23'0 0.0
2015-May-10 15:32N 51°53' E 004°23'0 0.0
2015-May-10 14:26N 51°53' E 004°23'0 0.0
2015-May-10 13:26N 51°53' E 004°23'0 0.0
2015-May-10 12:14N 51°53' E 004°23'0 0.0
2015-May-10 11:26N 51°53' E 004°23'0 0.0
2015-May-10 10:20N 51°53' E 004°23'0 0.0
2015-May-10 09:08N 51°53' E 004°23'0 0.0
2015-May-10 08:26N 51°53' E 004°23'0 0.0
2015-May-10 07:26N 51°53' E 004°23'0 0.0
2015-May-10 06:20N 51°53' E 004°23'0 0.0
2015-May-10 05:26N 51°53' E 004°23'0 0.0
2015-May-10 04:26N 51°53' E 004°23'0 0.0
2015-May-10 03:32N 51°53' E 004°23'0 0.0
2015-May-10 02:32N 51°53' E 004°23'0 0.0
2015-May-10 01:20N 51°53' E 004°23'0 0.0
2015-May-10 00:14N 51°53' E 004°23'0 0.0
2015-May-09 23:26N 51°53' E 004°23'0 0.0
2015-May-09 22:32N 51°53' E 004°23'0 0.0
2015-May-09 21:32N 51°53' E 004°23'0 0.0
2015-May-09 20:20N 51°53' E 004°23'0 0.0
2015-May-09 19:20N 51°53' E 004°23'0 0.0
2015-May-09 18:26N 51°53' E 004°23'0 0.0
2015-May-09 17:23N 51°53' E 004°23'0 0.0
2015-May-09 15:14N 51°53' E 004°23'0 0.0
2015-May-09 14:08N 51°53' E 004°23'0 0.0
2015-May-09 13:20N 51°53' E 004°23'  
Track history (hours):
 
Tides and Currents Weather Stations Pressure Air Temp Water Temp Dewpoint Dewpoint Depression Visibility Wind Speed Wind Dir Waves Ship Positions

Northsea Beta

Last reported at 2015-May-19 12:23 UTC. Time now 2015-May-22 08:31 UTC.
Position N 50°34' E 000°18'.

Length 110 m; draft 7.5 m.

Type: Ship (hazmat cat B). MMSI: 248970000.

Date/timePositionNaut miles runAvg speedWind from/ knotsBaromVisibWave heightAir tempDewpointWater temp
2015-May-19 12:23N 50°34' E 000°18'49 8.4
2015-May-19 06:34N 51°02' E 001°23'1111.1
2015-May-19 05:34N 51°09' E 001°36'10 9.6
2015-May-19 04:33N 51°16' E 001°48'10 8.3
2015-May-19 03:22N 51°24' E 001°55'6 7.8
2015-May-19 02:33N 51°29' E 002°01'7 7.4
2015-May-19 01:33N 51°35' E 002°09'65 9.0
2015-May-18 18:20N 52°03' E 003°44'6 7.2
2015-May-18 17:33N 52°03' E 003°53'6 6.3
2015-May-18 16:33N 51°60' E 004°02'10 9.6
2015-May-18 15:33N 51°55' E 004°15'4 3.9
2015-May-18 14:34N 51°54' E 004°22'0 0.0
2015-May-18 13:30N 51°54' E 004°22'0 0.0
2015-May-18 11:30N 51°54' E 004°22'0 0.0
2015-May-18 10:31N 51°54' E 004°22'0 0.0
2015-May-18 09:30N 51°54' E 004°22'0 0.0
2015-May-18 08:30N 51°54' E 004°22'0 0.0
2015-May-18 07:33N 51°54' E 004°22'0 0.0
2015-May-18 05:27N 51°54' E 004°22'0 0.0
2015-May-18 04:30N 51°54' E 004°22'0 0.0
2015-May-18 03:24N 51°54' E 004°22'0 0.0
2015-May-18 02:30N 51°54' E 004°22'0 0.0
2015-May-18 01:18N 51°54' E 004°22'0 0.0
2015-May-18 00:24N 51°54' E 004°22'0 0.0
2015-May-17 23:30N 51°54' E 004°22'0 0.0
2015-May-17 22:15N 51°54' E 004°22'0 0.0
2015-May-17 21:30N 51°54' E 004°22'0 0.0
2015-May-17 20:27N 51°54' E 004°22'0 0.0
2015-May-17 19:30N 51°54' E 004°22'0 0.0
2015-May-17 18:33N 51°54' E 004°22'0 0.0
2015-May-17 15:24N 51°54' E 004°22'0 0.0
2015-May-17 14:30N 51°54' E 004°22'0 0.0
2015-May-17 13:30N 51°54' E 004°22'0 0.0
2015-May-17 12:24N 51°54' E 004°22'0 0.0
2015-May-17 11:24N 51°54' E 004°22'0 0.0
2015-May-17 10:24N 51°54' E 004°22'0 0.0
2015-May-17 09:30N 51°54' E 004°22'0 0.0
2015-May-17 08:30N 51°54' E 004°22'0 0.0
2015-May-17 07:24N 51°54' E 004°22'0 0.0
2015-May-17 06:30N 51°54' E 004°22'0 0.0
2015-May-17 05:24N 51°54' E 004°22'0 0.0
2015-May-17 04:27N 51°54' E 004°22'0 0.0
2015-May-17 03:30N 51°54' E 004°22'0 0.0
2015-May-17 02:24N 51°54' E 004°22'0 0.0
2015-May-17 01:33N 51°54' E 004°22'0 0.0
2015-May-17 00:24N 51°54' E 004°22'0 0.0
2015-May-16 23:33N 51°54' E 004°22'0 0.0
2015-May-16 22:30N 51°54' E 004°22'0 0.0
2015-May-16 21:24N 51°54' E 004°22'0 0.0
2015-May-16 20:30N 51°54' E 004°22'0 0.0
2015-May-16 19:18N 51°54' E 004°22'0 0.0
2015-May-16 18:30N 51°54' E 004°22'0 0.0
2015-May-16 16:33N 51°54' E 004°22'0 0.0
2015-May-16 15:30N 51°54' E 004°22'0 0.0
2015-May-16 14:27N 51°54' E 004°22'0 0.0
2015-May-16 13:31N 51°54' E 004°22'0 0.0
2015-May-16 12:18N 51°54' E 004°22'0 0.0
2015-May-16 11:30N 51°54' E 004°22'0 0.0
2015-May-16 10:30N 51°54' E 004°22'0 0.0
2015-May-16 09:12N 51°54' E 004°22'0 0.0
2015-May-16 08:18N 51°54' E 004°22'0 0.0
2015-May-16 07:30N 51°54' E 004°22'0 0.0
2015-May-16 06:27N 51°54' E 004°22'0 0.0
2015-May-16 05:27N 51°54' E 004°22'0 0.0
2015-May-16 04:18N 51°54' E 004°22'0 0.0
2015-May-16 02:27N 51°54' E 004°22'0 0.0
2015-May-16 01:24N 51°54' E 004°22'0 0.0
2015-May-16 00:28N 51°54' E 004°22'0 0.0
2015-May-15 22:06N 51°54' E 004°22'0 0.0
2015-May-15 21:12N 51°54' E 004°22'0 0.0
2015-May-15 20:30N 51°54' E 004°22'0 0.0
2015-May-15 19:27N 51°54' E 004°22'0 0.0
2015-May-15 18:12N 51°54' E 004°22'0 0.0
2015-May-15 17:30N 51°54' E 004°22'0 0.0
2015-May-15 15:30N 51°54' E 004°22'0 0.0
2015-May-15 14:27N 51°54' E 004°22'0 0.0
2015-May-15 13:24N 51°54' E 004°22'0 0.0
2015-May-15 11:30N 51°54' E 004°22'0 0.0
2015-May-15 10:12N 51°54' E 004°22'0 0.0
2015-May-15 09:24N 51°54' E 004°22'0 0.0
2015-May-15 08:30N 51°54' E 004°22'0 0.0
2015-May-15 07:30N 51°54' E 004°22'0 0.0
2015-May-15 06:12N 51°54' E 004°22'0 0.0
2015-May-15 05:24N 51°54' E 004°22'0 0.0
2015-May-15 04:12N 51°54' E 004°22'0 0.0
2015-May-15 03:33N 51°54' E 004°22'0 0.0
2015-May-15 02:24N 51°54' E 004°22'0 0.0
2015-May-15 01:21N 51°54' E 004°22'0 0.0
2015-May-15 00:33N 51°54' E 004°22'0 0.0
2015-May-14 23:30N 51°54' E 004°22'0 0.0
2015-May-14 22:30N 51°54' E 004°22'0 0.0
2015-May-14 21:06N 51°54' E 004°22'0 0.0
2015-May-14 20:30N 51°54' E 004°22'0 0.0
2015-May-14 19:30N 51°54' E 004°22'0 0.0
2015-May-14 18:30N 51°54' E 004°22'0 0.0
2015-May-14 17:30N 51°54' E 004°22'0 0.0
2015-May-14 16:30N 51°54' E 004°22'0 0.0
2015-May-14 15:27N 51°54' E 004°22'0 0.0
2015-May-14 14:24N 51°54' E 004°22'0 0.0
2015-May-14 13:30N 51°54' E 004°22'0 0.0
2015-May-14 12:18N 51°54' E 004°22'0 0.0
2015-May-14 11:24N 51°54' E 004°22'0 0.0
2015-May-14 10:24N 51°54' E 004°22'0 0.0
2015-May-14 09:33N 51°54' E 004°22'0 0.0
2015-May-14 08:24N 51°54' E 004°22'0 0.0
2015-May-14 07:29N 51°54' E 004°22'0 0.0
2015-May-14 06:29N 51°54' E 004°22'0 0.0
2015-May-14 05:32N 51°54' E 004°22'0 0.0
2015-May-14 04:17N 51°54' E 004°22'0 0.0
2015-May-14 03:23N 51°54' E 004°22'0 0.0
2015-May-14 02:26N 51°54' E 004°22'0 0.0
2015-May-14 01:23N 51°54' E 004°22'0 0.0
2015-May-14 00:32N 51°54' E 004°22'0 0.0
2015-May-13 23:11N 51°54' E 004°22'1 1.4
2015-May-13 22:34N 51°53' E 004°22'0 0.2
2015-May-13 21:26N 51°53' E 004°23'0 0.0
2015-May-13 20:32N 51°53' E 004°23'0 0.0
2015-May-13 19:29N 51°53' E 004°23'0 0.0
2015-May-13 18:26N 51°53' E 004°23'0 0.0
2015-May-13 17:32N 51°53' E 004°23'0 0.0
2015-May-13 16:32N 51°53' E 004°23'0 0.0
2015-May-13 15:26N 51°53' E 004°23'0 0.0
2015-May-13 13:32N 51°53' E 004°23'0 0.0
2015-May-13 12:08N 51°53' E 004°23'0 0.0
2015-May-13 11:29N 51°53' E 004°23'0 0.0
2015-May-13 09:26N 51°53' E 004°23'0 0.0
2015-May-13 08:14N 51°53' E 004°23'0 0.0
2015-May-13 07:32N 51°53' E 004°23'0 0.0
2015-May-13 06:14N 51°53' E 004°23'0 0.0
2015-May-13 05:17N 51°53' E 004°23'0 0.0
2015-May-13 03:32N 51°53' E 004°23'0 0.0
2015-May-13 02:32N 51°53' E 004°23'0 0.0
2015-May-13 00:08N 51°53' E 004°23'0 0.0
2015-May-12 23:14N 51°53' E 004°23'0 0.0
2015-May-12 22:32N 51°53' E 004°23'0 0.0
2015-May-12 21:32N 51°53' E 004°23'0 0.0
2015-May-12 20:32N 51°53' E 004°23'0 0.0
2015-May-12 19:17N 51°53' E 004°23'0 0.0
2015-May-12 18:32N 51°53' E 004°23'0 0.0
2015-May-12 17:32N 51°53' E 004°23'0 0.0
2015-May-12 16:32N 51°53' E 004°23'0 0.0
2015-May-12 14:29N 51°53' E 004°23'0 0.0
2015-May-12 13:29N 51°53' E 004°23'0 0.0
2015-May-12 12:32N 51°53' E 004°23'0 0.0
2015-May-12 11:20N 51°53' E 004°23'0 0.0
2015-May-12 08:32N 51°53' E 004°23'0 0.0
2015-May-12 07:29N 51°53' E 004°23'0 0.0
2015-May-12 06:20N 51°53' E 004°23'0 0.0
2015-May-12 04:11N 51°53' E 004°23'0 0.0
2015-May-12 03:26N 51°53' E 004°23'0 0.0
2015-May-12 02:20N 51°53' E 004°23'0 0.0
2015-May-12 01:14N 51°53' E 004°23'0 0.0
2015-May-12 00:26N 51°53' E 004°23'0 0.0
2015-May-11 23:26N 51°53' E 004°23'0 0.0
2015-May-11 22:29N 51°53' E 004°23'0 0.0
2015-May-11 21:26N 51°53' E 004°23'0 0.0
2015-May-11 20:26N 51°53' E 004°23'0 0.0
2015-May-11 19:32N 51°53' E 004°23'0 0.0
2015-May-11 18:32N 51°53' E 004°23'0 0.0
2015-May-11 16:29N 51°53' E 004°23'0 0.0
2015-May-11 15:32N 51°53' E 004°23'0 0.0
2015-May-11 13:23N 51°53' E 004°23'0 0.0
2015-May-11 12:32N 51°53' E 004°23'0 0.0
2015-May-11 11:26N 51°53' E 004°23'0 0.0
2015-May-11 10:26N 51°53' E 004°23'0 0.0
2015-May-11 08:32N 51°53' E 004°23'0 0.0
2015-May-11 05:29N 51°53' E 004°23'0 0.0
2015-May-11 04:23N 51°53' E 004°23'0 0.0
2015-May-11 03:26N 51°53' E 004°23'0 0.0
2015-May-11 02:26N 51°53' E 004°23'0 0.0
2015-May-11 01:32N 51°53' E 004°23'0 0.0
2015-May-11 00:20N 51°53' E 004°23'0 0.0
2015-May-10 23:32N 51°53' E 004°23'0 0.0
2015-May-10 22:32N 51°53' E 004°23'0 0.0
2015-May-10 21:32N 51°53' E 004°23'0 0.0
2015-May-10 20:32N 51°53' E 004°23'0 0.0
2015-May-10 18:20N 51°53' E 004°23'0 0.0
2015-May-10 17:08N 51°53' E 004°23'0 0.0
2015-May-10 16:26N 51°53' E 004°23'0 0.0
2015-May-10 15:32N 51°53' E 004°23'0 0.0
2015-May-10 14:26N 51°53' E 004°23'0 0.0
2015-May-10 13:26N 51°53' E 004°23'0 0.0
2015-May-10 12:14N 51°53' E 004°23'0 0.0
2015-May-10 11:26N 51°53' E 004°23'0 0.0
2015-May-10 10:20N 51°53' E 004°23'0 0.0
2015-May-10 09:08N 51°53' E 004°23'0 0.0
2015-May-10 08:26N 51°53' E 004°23'0 0.0
2015-May-10 07:26N 51°53' E 004°23'0 0.0
2015-May-10 06:20N 51°53' E 004°23'0 0.0
2015-May-10 05:26N 51°53' E 004°23'0 0.0
2015-May-10 04:26N 51°53' E 004°23'0 0.0
2015-May-10 03:32N 51°53' E 004°23'0 0.0
2015-May-10 02:32N 51°53' E 004°23'0 0.0
2015-May-10 01:20N 51°53' E 004°23'0 0.0
2015-May-10 00:14N 51°53' E 004°23'0 0.0
2015-May-09 23:26N 51°53' E 004°23'0 0.0
2015-May-09 22:32N 51°53' E 004°23'0 0.0
2015-May-09 21:32N 51°53' E 004°23'0 0.0
2015-May-09 20:20N 51°53' E 004°23'0 0.0
2015-May-09 19:20N 51°53' E 004°23'0 0.0
2015-May-09 18:26N 51°53' E 004°23'0 0.0
2015-May-09 17:23N 51°53' E 004°23'0 0.0
2015-May-09 15:14N 51°53' E 004°23'0 0.0
2015-May-09 14:08N 51°53' E 004°23'0 0.0
2015-May-09 13:20N 51°53' E 004°23'  

Dump ship's entire track history